Flight Track Log - Related Links

Times and Time Zones

All times are in EDT time to prevent confusion due to time zone crossing. See the ARG1284 flight status page for this flight to view local times or setup timezone preferences in your user account.


Time Position Orientation Groundspeed Altitude Reporting Facility
EDT Latitude Longitude Course Direction KTS MPH feet Rate Location/Type
Sun 11:11:07 AM -34.5610 -58.3380 63° Northeast 236 272 2,500  Level FlightAware ADS-B
Sun 11:13:41 AM -34.5200 -58.3930 312° West 252 290 10,400 3,093 Climbing FlightAware ADS-B
Sun 11:14:21 AM -34.5410 -58.4450 244° Southwest 261 300 12,500 2,289 Climbing FlightAware ADS-B
Sun 11:14:57 AM -34.5620 -58.4960 243° Southwest 309 356 13,300 2,164 Climbing FlightAware ADS-B
Sun 11:17:00 AM -34.5334 -58.7623 270° West  Level FlightAware Approximate
Sun 11:17:24 AM -34.6050 -58.7740 270° West 370 426 19,100  Level FlightAware ADS-B
Sun 11:18:06 AM -34.6010 -58.8620 273° West 377 434 20,800 2,314 Climbing FlightAware ADS-B
Sun 11:18:34 AM -34.5990 -58.9190 272° West 381 438 21,800 1,949 Climbing FlightAware ADS-B
Sun 11:21:00 AM -34.5819 -59.2380 273° West  Level Estimated
Sun 11:22:00 AM -34.5475 -59.3626 289° West  Level FlightAware Approximate
Sun 11:23:00 AM -34.5129 -59.4870 289° West  Level FlightAware Approximate
Sun 11:23:57 AM -34.5670 -59.6310 277° West 386 444 32,200  Level FlightAware ADS-B
Sun 11:24:00 AM -34.5060 -59.6180 277° West  Level Estimated
Sun 11:24:38 AM -34.5650 -59.7210 272° West 383 441 33,300  Level FlightAware ADS-B
Sun 11:27:00 AM -34.5461 -60.0310 270° West  Level Estimated
Sun 11:28:00 AM -34.5378 -60.1619 274° West  Level Estimated
Sun 11:28:30 AM -34.5550 -60.1870 274° West 361 415 38,000  Level FlightAware ADS-B
Sun 11:29:30 AM -34.5520 -60.3050 272° West 362 417 38,000  Level FlightAware ADS-B
Sun 11:32:00 AM -34.5297 -60.6322 276° West  Level Estimated
Sun 11:32:45 AM -34.5420 -60.7000 276° West 359 413 38,000  Level FlightAware ADS-B
Sun 11:33:25 AM -34.5390 -60.7810 273° West 357 411 38,000  Level FlightAware ADS-B
Sun 11:34:10 AM -34.5370 -60.8710 272° West 356 410 38,000  Level FlightAware ADS-B
Sun 11:34:50 AM -34.5330 -60.9460 274° West 355 409 38,000  Level FlightAware ADS-B
Sun 11:37:00 AM -34.5096 -61.2290 276° West  Level FlightAware Approximate
Sun 11:37:51 AM -34.4800 -61.2920 276° West 356 410 38,000  Level FlightAware ADS-B
Sun 11:38:00 AM -34.4986 -61.3596 276° West  Level FlightAware Approximate
Sun 11:38:36 AM -34.4660 -61.3800 281° West 354 407 38,000  Level FlightAware ADS-B
Sun 11:39:17 AM -34.4540 -61.4540 281° West 354 407 38,000  Level FlightAware ADS-B
Sun 11:41:00 AM -34.4358 -61.6781 276° West  Level FlightAware Approximate
Sun 11:41:53 AM -34.4160 -61.7130 276° West 354 407 38,000  Level FlightAware ADS-B
Sun 11:42:00 AM -34.4251 -61.8086 276° West  Level FlightAware Approximate
Sun 11:42:29 AM -34.4080 -61.7730 279° West 354 407 38,000  Level FlightAware ADS-B
Sun 11:44:06 AM -34.3840 -61.9340 280° West 354 407 38,000  Level FlightAware ADS-B
Sun 11:46:00 AM -34.3642 -62.1818 275° West  Level FlightAware Approximate
Sun 11:47:00 AM -34.3535 -62.3122 276° West  Level FlightAware Approximate
Sun 11:47:43 AM -34.3320 -62.2950 276° West 354 407 38,000  Level FlightAware ADS-B
Sun 11:48:31 AM -34.3200 -62.3750 280° West 354 407 38,000  Level FlightAware ADS-B
Sun 11:51:00 AM -34.2945 -62.6987 275° West  Level FlightAware Approximate
Sun 11:52:00 AM -34.2839 -62.8290 276° West  Level FlightAware Approximate
Sun 11:53:00 AM -34.2733 -62.9593 276° West  Level FlightAware Approximate
Sun 11:54:00 AM -34.2625 -63.0895 276° West  Level FlightAware Approximate
Sun 11:55:00 AM -34.2515 -63.2197 276° West  Level FlightAware Approximate
Sun 11:56:00 AM -34.2405 -63.3499 276° West  Level FlightAware Approximate
Sun 11:57:00 AM -34.2293 -63.4800 276° West  Level FlightAware Approximate
Sun 11:58:00 AM -34.2179 -63.6101 276° West  Level FlightAware Approximate
Sun 11:59:00 AM -34.2064 -63.7402 276° West  Level FlightAware Approximate
Sun 12:00:00 PM -34.1948 -63.8702 276° West  Level FlightAware Approximate
Sun 12:01:00 PM -34.1830 -64.0002 276° West  Level FlightAware Approximate
Sun 12:02:00 PM -34.1711 -64.1301 276° West  Level FlightAware Approximate
Sun 12:03:00 PM -34.1591 -64.2601 276° West  Level FlightAware Approximate
Sun 12:04:00 PM -34.1469 -64.3900 276° West  Level FlightAware Approximate
Sun 12:05:00 PM -34.1346 -64.5198 276° West  Level FlightAware Approximate
Sun 12:06:00 PM -34.1222 -64.6496 277° West  Level FlightAware Approximate
Sun 12:07:00 PM -34.1096 -64.7794 277° West  Level FlightAware Approximate
Sun 12:08:00 PM -34.0969 -64.9091 277° West  Level FlightAware Approximate
Sun 12:09:00 PM -34.0840 -65.0388 277° West  Level FlightAware Approximate
Sun 12:10:00 PM -34.0710 -65.1684 277° West  Level FlightAware Approximate
Sun 12:11:00 PM -34.0579 -65.2980 277° West  Level FlightAware Approximate
Sun 12:12:00 PM -34.0446 -65.4276 277° West  Level FlightAware Approximate
Sun 12:13:00 PM -34.0312 -65.5571 277° West  Level FlightAware Approximate
Sun 12:14:00 PM -34.0177 -65.6866 277° West  Level FlightAware Approximate
Sun 12:15:00 PM -34.0040 -65.8160 277° West  Level FlightAware Approximate
Sun 12:16:00 PM -33.9902 -65.9454 277° West  Level FlightAware Approximate
Sun 12:17:00 PM -33.9763 -66.0748 277° West  Level FlightAware Approximate
Sun 12:18:00 PM -33.9622 -66.2041 277° West  Level FlightAware Approximate
Sun 12:19:00 PM -33.9480 -66.3334 278° West  Level FlightAware Approximate
Sun 12:20:00 PM -33.9336 -66.4626 278° West  Level FlightAware Approximate
Sun 12:21:00 PM -33.9191 -66.5918 278° West  Level FlightAware Approximate
Sun 12:22:00 PM -33.9045 -66.7210 278° West  Level FlightAware Approximate
Sun 12:23:00 PM -33.8898 -66.8501 278° West  Level FlightAware Approximate
Sun 12:24:00 PM -33.8749 -66.9791 278° West  Level FlightAware Approximate
Sun 12:25:00 PM -33.8599 -67.1081 278° West  Level FlightAware Approximate
Sun 12:26:00 PM -33.8447 -67.2371 278° West  Level FlightAware Approximate
Sun 12:27:00 PM -33.8294 -67.3660 278° West  Level FlightAware Approximate
Sun 12:28:00 PM -33.8140 -67.4949 278° West  Level FlightAware Approximate
Sun 12:29:00 PM -33.7984 -67.6237 278° West  Level FlightAware Approximate
Sun 12:30:00 PM -33.7827 -67.7525 278° West  Level FlightAware Approximate
Sun 12:31:00 PM -33.7669 -67.8812 278° West  Level FlightAware Approximate
Sun 12:32:00 PM -33.7448 -68.0084 279° West  Level FlightAware Approximate
Sun 12:33:00 PM -33.7285 -68.1370 279° West  Level FlightAware Approximate
Sun 12:34:00 PM -33.7121 -68.2656 279° West  Level FlightAware Approximate
Sun 12:35:00 PM -33.6956 -68.3941 279° West  Level FlightAware Approximate
Sun 12:36:00 PM -33.6790 -68.5225 279° West  Level FlightAware Approximate
Sun 12:37:00 PM -33.6667 -68.6513 270° West  Level FlightAware Approximate
Sun 12:38:00 PM -33.6573 -68.7805 278° West  Level FlightAware Approximate
Sun 12:39:00 PM -33.6421 -68.9092 278° West  Level FlightAware Approximate
Sun 12:40:00 PM -33.6244 -69.0373 281° West  Level FlightAware Approximate
Sun 12:40:16 PM -33.1070 -68.7190 279° West 399 459 38,000  Level FlightAware ADS-B
Sun 12:41:00 PM -33.6032 -69.1646 281° West  Level FlightAware Approximate
Sun 12:42:00 PM -33.5823 -69.2920 278° West  Level FlightAware Approximate
Sun 12:43:00 PM -33.5669 -69.4205 278° West  Level FlightAware Approximate
Sun 12:44:00 PM -33.5514 -69.5490 278° West  Level FlightAware Approximate
Sun 12:45:00 PM -33.5358 -69.6774 278° West  Level FlightAware Approximate
Sun 12:46:00 PM -33.5201 -69.8058 278° West  Level FlightAware Approximate
Sun 12:47:00 PM -33.5000 -69.9333 281° West  Level FlightAware Approximate
Sun 12:48:00 PM -33.4797 -70.0606 279° West  Level FlightAware Approximate
Sun 12:48:55 PM -32.9090 -69.8090 282° West 422 486 32,000  Level FlightAware ADS-B
Sun 12:49:00 PM -33.4627 -70.1887 279° West  Level FlightAware Approximate
Sun 12:49:37 PM -32.8950 -69.8900 282° West 422 486 32,000  Level FlightAware ADS-B
Sun 12:51:00 PM -32.8720 -70.0490 280° West 293 337 25,900 -2,425 Descending FlightAware ADS-B
Sun 12:53:00 PM -33.0120 -70.2455 230° Southwest  Level Estimated
Sun 12:54:00 PM -33.0819 -70.3440 230° Southwest  Level Estimated
Sun 12:55:00 PM -33.1517 -70.4427 230° Southwest  Level Estimated
Sun 12:56:00 PM -33.2214 -70.5415 230° Southwest  Level Estimated
Sun 12:57:00 PM -33.2910 -70.6405 230° Southwest  Level Estimated
Sun 12:58:00 PM -33.3606 -70.7396 230° Southwest  Level Estimated
Sun 12:59:00 PM -33.3930 -70.7858 230° Southwest  Level Estimated
Sun 12:59:53 PM -33.1370 -70.7870 333° Northwest 261 300 7,100  Level FlightAware ADS-B
Sun 01:00:00 PM -33.3930 -70.7858 333° Northwest  Level Estimated
Sun 01:02:00 PM -33.3660 -70.7859 180° South  Level Estimated

Login

Don't have an account? Register now (free) for customized features, flight alerts, and more!